Time;durP1;ratioP1;P1;durP2;ratioP2;P2;SDS_P1;SDS_P2;PMS_P1;PMS_P2;Temp;Humidity;BMP_temperature;BMP_pressure;BME280_temperature;BME280_humidity;BME280_pressure;Samples;Min_cycle;Max_cycle;Signal;HPM_P1;HPM_P2
2022/03/08 00:01:35;;;;;;;;;;;4.00;40.10;;;;;;5013722;28;19949;-57
2022/03/08 00:04:01;;;;;;;;;;;4.00;40.00;;;;;;5013700;28;19955;-56
2022/03/08 00:06:26;;;;;;;;;;;4.00;40.20;;;;;;5013924;28;19909;-57
2022/03/08 00:08:52;;;;;;;;;;;4.00;40.20;;;;;;5013702;28;19910;-57
2022/03/08 00:11:18;;;;;;;;;;;4.10;39.90;;;;;;5013544;28;19988;-57
2022/03/08 00:13:44;;;;;;;;;;;4.20;39.70;;;;;;5013622;28;19943;-58
2022/03/08 00:16:09;;;;;;;;;;;4.10;40.30;;;;;;5013569;28;20323;-57
2022/03/08 00:18:38;;;;;;;;;;;4.00;41.50;;;;;;5013326;28;19929;-56
2022/03/08 00:21:05;;;;;;;;;;;3.50;42.70;;;;;;5013480;28;19910;-59
2022/03/08 00:23:31;;;;;;;;;;;3.30;43.40;;;;;;5013646;28;19947;-60
2022/03/08 00:25:59;;;;;;;;;;;3.50;43.60;;;;;;5013426;28;19983;-59
2022/03/08 00:28:25;;;;;;;;;;;3.60;43.50;;;;;;5013689;28;19916;-61
2022/03/08 00:30:51;;;;;;;;;;;3.60;44.00;;;;;;5013487;28;19910;-62
2022/03/08 00:33:17;;;;;;;;;;;3.60;43.40;;;;;;5013577;28;19914;-60
2022/03/08 00:35:42;;;;;;;;;;;3.50;44.10;;;;;;5013457;28;19910;-63
2022/03/08 00:38:08;;;;;;;;;;;3.50;44.50;;;;;;5013493;28;19933;-65
2022/03/08 00:40:33;;;;;;;;;;;3.60;44.50;;;;;;5013327;28;19914;-58
2022/03/08 00:42:59;;;;;;;;;;;3.50;43.20;;;;;;5015764;28;20337;-56
2022/03/08 00:45:25;;;;;;;;;;;3.50;44.10;;;;;;5017550;28;19909;-57
2022/03/08 00:47:50;;;;;;;;;;;3.40;43.40;;;;;;5022421;28;19917;-58
2022/03/08 00:50:18;;;;;;;;;;;3.40;43.20;;;;;;5016866;28;20016;-64
2022/03/08 00:52:43;;;;;;;;;;;3.40;43.60;;;;;;5016696;28;19909;-61
2022/03/08 00:55:10;;;;;;;;;;;3.40;44.10;;;;;;5016677;28;19933;-58
2022/03/08 00:57:36;;;;;;;;;;;3.40;43.40;;;;;;5016671;28;19913;-58
2022/03/08 01:00:04;;;;;;;;;;;3.60;43.30;;;;;;5016687;28;19924;-58
2022/03/08 01:02:29;;;;;;;;;;;3.70;43.00;;;;;;5016578;28;20018;-57
2022/03/08 01:04:55;;;;;;;;;;;3.50;43.80;;;;;;5016293;28;20358;-56
2022/03/08 01:07:20;;;;;;;;;;;3.50;42.80;;;;;;5016530;28;19909;-59
2022/03/08 01:09:46;;;;;;;;;;;3.40;43.40;;;;;;5016598;28;19914;-56
2022/03/08 01:12:12;;;;;;;;;;;3.30;44.40;;;;;;5016165;28;19916;-57
2022/03/08 01:14:37;;;;;;;;;;;3.20;45.10;;;;;;5016461;28;19941;-61
2022/03/08 01:17:03;;;;;;;;;;;3.00;45.20;;;;;;5016191;28;19910;-57
2022/03/08 01:19:29;;;;;;;;;;;3.00;45.40;;;;;;5015768;28;20016;-56
2022/03/08 01:21:54;;;;;;;;;;;3.00;45.60;;;;;;4998578;28;20004;-56
2022/03/08 01:24:20;;;;;;;;;;;3.10;45.10;;;;;;5016101;28;19913;-56
2022/03/08 01:26:46;;;;;;;;;;;3.20;44.20;;;;;;5015952;28;19909;-56
2022/03/08 01:29:11;;;;;;;;;;;3.20;44.30;;;;;;5015959;28;19914;-57
2022/03/08 01:31:37;;;;;;;;;;;3.10;44.60;;;;;;5015762;28;19910;-56
2022/03/08 01:34:03;;;;;;;;;;;3.00;45.30;;;;;;5015868;28;20246;-56
2022/03/08 01:36:28;;;;;;;;;;;2.90;45.60;;;;;;5015941;28;19914;-57
2022/03/08 01:38:54;;;;;;;;;;;3.00;45.50;;;;;;5015659;28;19925;-58
2022/03/08 01:41:20;;;;;;;;;;;3.00;45.80;;;;;;5015807;28;19917;-57
2022/03/08 01:43:45;;;;;;;;;;;3.20;45.00;;;;;;5015890;28;19949;-57
2022/03/08 01:46:12;;;;;;;;;;;3.00;45.60;;;;;;5015525;28;20346;-56
2022/03/08 01:48:38;;;;;;;;;;;2.90;44.80;;;;;;5017597;28;19971;-56
2022/03/08 01:51:03;;;;;;;;;;;2.90;45.90;;;;;;5017293;28;19909;-57
2022/03/08 01:53:29;;;;;;;;;;;2.80;46.20;;;;;;5014565;28;19983;-58
2022/03/08 01:55:54;;;;;;;;;;;2.70;45.70;;;;;;5015376;28;19955;-57
2022/03/08 01:58:20;;;;;;;;;;;2.60;47.20;;;;;;5015551;28;19916;-57
2022/03/08 02:00:46;;;;;;;;;;;2.60;47.00;;;;;;5015265;28;19915;-57
2022/03/08 02:03:11;;;;;;;;;;;2.80;45.70;;;;;;5015784;28;19909;-56
2022/03/08 02:05:37;;;;;;;;;;;2.60;46.70;;;;;;5015039;28;19917;-57
2022/03/08 02:08:02;;;;;;;;;;;3.00;44.60;;;;;;5015229;28;20008;-57
2022/03/08 02:10:28;;;;;;;;;;;2.90;45.90;;;;;;5015252;28;19910;-57
2022/03/08 02:12:53;;;;;;;;;;;3.00;45.00;;;;;;5015237;28;20285;-56
2022/03/08 02:15:21;;;;;;;;;;;2.90;45.50;;;;;;5014826;28;19936;-57
2022/03/08 02:17:46;;;;;;;;;;;2.70;46.30;;;;;;5015197;28;19920;-57
2022/03/08 02:20:13;;;;;;;;;;;2.80;45.70;;;;;;5014907;28;19926;-57
2022/03/08 02:22:39;;;;;;;;;;;2.80;45.80;;;;;;5014913;28;20011;-57
2022/03/08 02:25:06;;;;;;;;;;;2.90;45.90;;;;;;5015458;28;20244;-56
2022/03/08 02:27:31;;;;;;;;;;;2.70;46.70;;;;;;5015053;28;19909;-57
2022/03/08 02:29:58;;;;;;;;;;;2.60;47.20;;;;;;5014745;28;19916;-56
2022/03/08 02:32:23;;;;;;;;;;;2.70;46.90;;;;;;5014855;28;19963;-57
2022/03/08 02:34:49;;;;;;;;;;;2.70;46.60;;;;;;5014635;28;19917;-57
2022/03/08 02:37:14;;;;;;;;;;;2.80;46.20;;;;;;5014731;28;20281;-55
2022/03/08 02:39:40;;;;;;;;;;;2.90;45.60;;;;;;5014607;28;19917;-56
2022/03/08 02:42:06;;;;;;;;;;;2.80;46.30;;;;;;5014565;28;19909;-56
2022/03/08 02:44:32;;;;;;;;;;;2.70;46.70;;;;;;5014424;28;20011;-57
2022/03/08 02:47:02;;;;;;;;;;;2.80;46.40;;;;;;5014552;28;19909;-58
2022/03/08 02:49:27;;;;;;;;;;;2.80;47.00;;;;;;5014720;28;19999;-57
2022/03/08 02:51:55;;;;;;;;;;;2.60;47.80;;;;;;5014984;28;19960;-57
2022/03/08 02:54:21;;;;;;;;;;;2.60;47.40;;;;;;5014715;28;19963;-58
2022/03/08 02:56:46;;;;;;;;;;;2.50;47.80;;;;;;5014437;28;20000;-57
2022/03/08 02:59:18;;;;;;;;;;;2.50;47.90;;;;;;5013945;28;19925;-57
2022/03/08 03:01:43;;;;;;;;;;;2.40;48.60;;;;;;5014611;28;20250;-57
2022/03/08 03:04:09;;;;;;;;;;;2.50;48.50;;;;;;5014012;28;19917;-57
2022/03/08 03:06:35;;;;;;;;;;;2.50;48.40;;;;;;5014328;28;19913;-57
2022/03/08 03:09:02;;;;;;;;;;;2.60;47.90;;;;;;5014287;28;19909;-57
2022/03/08 03:11:27;;;;;;;;;;;2.50;48.10;;;;;;5014196;28;20388;-57
2022/03/08 03:13:53;;;;;;;;;;;2.40;48.50;;;;;;5014134;28;19917;-57
2022/03/08 03:16:19;;;;;;;;;;;2.40;49.00;;;;;;5014154;28;19917;-57
2022/03/08 03:18:44;;;;;;;;;;;2.30;49.10;;;;;;5013969;28;19922;-58
2022/03/08 03:21:10;;;;;;;;;;;2.40;48.60;;;;;;5014137;28;19909;-56
2022/03/08 03:23:36;;;;;;;;;;;2.50;47.40;;;;;;5014209;28;20354;-57
2022/03/08 03:26:02;;;;;;;;;;;2.60;48.20;;;;;;5014120;28;20364;-56
2022/03/08 03:28:27;;;;;;;;;;;2.60;48.30;;;;;;5014025;28;19945;-57
2022/03/08 03:30:53;;;;;;;;;;;2.50;48.40;;;;;;5014051;28;19911;-56
2022/03/08 03:33:19;;;;;;;;;;;2.40;48.90;;;;;;5013987;28;19913;-57
2022/03/08 03:35:44;;;;;;;;;;;2.40;49.70;;;;;;5014091;28;19916;-56
2022/03/08 03:38:10;;;;;;;;;;;2.30;49.40;;;;;;5014113;28;19918;-56
2022/03/08 03:40:35;;;;;;;;;;;2.30;49.70;;;;;;5014204;28;19913;-56
2022/03/08 03:43:01;;;;;;;;;;;2.40;49.80;;;;;;5013999;28;19952;-57
2022/03/08 03:45:26;;;;;;;;;;;2.30;49.70;;;;;;5013841;28;19921;-56
2022/03/08 03:47:52;;;;;;;;;;;2.30;49.90;;;;;;5014290;28;19917;-56
2022/03/08 03:50:17;;;;;;;;;;;2.30;49.90;;;;;;5014097;28;20380;-56
2022/03/08 03:52:43;;;;;;;;;;;2.20;50.10;;;;;;5013731;28;19917;-56
2022/03/08 03:55:09;;;;;;;;;;;2.40;49.50;;;;;;5013926;28;19952;-57
2022/03/08 03:57:34;;;;;;;;;;;2.40;49.00;;;;;;5013591;28;20372;-57
2022/03/08 04:00:00;;;;;;;;;;;2.30;50.00;;;;;;5014462;28;19918;-57
2022/03/08 04:02:26;;;;;;;;;;;2.20;50.00;;;;;;5013607;28;19910;-58
2022/03/08 04:04:51;;;;;;;;;;;2.20;49.20;;;;;;5013532;28;19910;-57
2022/03/08 04:07:17;;;;;;;;;;;2.30;49.60;;;;;;5013623;28;20247;-57
2022/03/08 04:09:42;;;;;;;;;;;2.20;50.00;;;;;;5013647;28;20258;-56
2022/03/08 04:12:08;;;;;;;;;;;2.10;50.20;;;;;;5013352;28;19953;-55
2022/03/08 04:14:33;;;;;;;;;;;2.20;50.00;;;;;;5013647;28;19956;-57
2022/03/08 04:16:59;;;;;;;;;;;2.00;51.00;;;;;;5014865;28;19917;-56
2022/03/08 04:19:25;;;;;;;;;;;2.00;51.00;;;;;;5017085;28;19961;-56
2022/03/08 04:21:50;;;;;;;;;;;1.90;51.20;;;;;;5017354;28;20324;-57
2022/03/08 04:24:16;;;;;;;;;;;1.90;51.20;;;;;;5017308;28;19909;-56
2022/03/08 04:26:41;;;;;;;;;;;2.00;51.60;;;;;;5017029;28;20297;-56
2022/03/08 04:29:07;;;;;;;;;;;2.00;51.20;;;;;;5017191;28;19909;-57
2022/03/08 04:31:32;;;;;;;;;;;2.00;50.80;;;;;;5017036;28;19932;-56
2022/03/08 04:33:58;;;;;;;;;;;2.00;51.00;;;;;;5016951;28;19909;-57
2022/03/08 04:36:24;;;;;;;;;;;2.00;51.50;;;;;;5017026;28;20365;-56
2022/03/08 04:38:49;;;;;;;;;;;2.20;50.80;;;;;;5017022;28;20015;-56
2022/03/08 04:41:15;;;;;;;;;;;2.10;50.70;;;;;;5017370;28;19909;-57
2022/03/08 04:43:40;;;;;;;;;;;2.00;51.30;;;;;;5020801;28;19910;-57
2022/03/08 04:46:06;;;;;;;;;;;2.10;50.80;;;;;;5018097;28;19969;-56
2022/03/08 04:48:31;;;;;;;;;;;2.10;51.50;;;;;;5016728;28;19909;-56
2022/03/08 04:50:57;;;;;;;;;;;2.00;51.30;;;;;;5017086;28;19948;-56
2022/03/08 04:53:23;;;;;;;;;;;2.00;51.20;;;;;;5016866;28;20413;-56
2022/03/08 04:55:48;;;;;;;;;;;1.90;51.40;;;;;;5016625;28;19916;-58
2022/03/08 04:58:14;;;;;;;;;;;1.90;51.60;;;;;;5016667;28;20000;-57
2022/03/08 05:00:39;;;;;;;;;;;2.10;51.40;;;;;;5016534;28;20416;-57
2022/03/08 05:03:05;;;;;;;;;;;2.10;51.30;;;;;;5016632;28;19909;-57
2022/03/08 05:05:33;;;;;;;;;;;2.00;51.60;;;;;;5016382;28;19952;-57
2022/03/08 05:07:59;;;;;;;;;;;2.10;51.90;;;;;;5016642;28;19965;-57
2022/03/08 05:10:25;;;;;;;;;;;2.50;49.80;;;;;;5016447;28;19909;-57
2022/03/08 05:12:52;;;;;;;;;;;2.30;50.30;;;;;;5016469;28;19910;-57
2022/03/08 05:15:18;;;;;;;;;;;2.30;50.40;;;;;;5016013;28;20373;-57
2022/03/08 05:17:43;;;;;;;;;;;2.30;50.80;;;;;;5016251;28;19969;-56
2022/03/08 05:20:09;;;;;;;;;;;2.20;50.90;;;;;;5015814;28;19929;-56
2022/03/08 05:22:35;;;;;;;;;;;2.50;50.50;;;;;;5016081;28;20006;-56
2022/03/08 05:25:00;;;;;;;;;;;2.70;49.30;;;;;;5015891;28;19917;-57
2022/03/08 05:27:26;;;;;;;;;;;2.60;49.60;;;;;;5015877;28;19916;-58
2022/03/08 05:29:52;;;;;;;;;;;2.50;50.00;;;;;;5015944;28;19916;-57
2022/03/08 05:32:18;;;;;;;;;;;2.30;50.80;;;;;;5015865;28;19992;-57
2022/03/08 05:34:44;;;;;;;;;;;2.50;50.20;;;;;;5015880;28;19910;-57
2022/03/08 05:37:09;;;;;;;;;;;2.30;50.50;;;;;;5016021;28;19968;-57
2022/03/08 05:39:35;;;;;;;;;;;2.20;51.30;;;;;;5015631;28;19921;-58
2022/03/08 05:42:01;;;;;;;;;;;2.20;51.80;;;;;;5016128;28;20277;-57
2022/03/08 05:44:26;;;;;;;;;;;2.10;52.30;;;;;;5015541;28;20016;-58
2022/03/08 05:46:52;;;;;;;;;;;2.00;52.60;;;;;;5015583;28;19910;-57
2022/03/08 05:49:17;;;;;;;;;;;2.20;51.50;;;;;;5015643;28;19909;-57
2022/03/08 05:51:43;;;;;;;;;;;2.40;51.20;;;;;;5015531;28;19914;-57
2022/03/08 05:54:09;;;;;;;;;;;2.40;51.70;;;;;;5015722;28;19937;-58
2022/03/08 05:56:35;;;;;;;;;;;2.20;52.20;;;;;;5015178;28;19909;-57
2022/03/08 05:59:00;;;;;;;;;;;2.10;52.60;;;;;;5015292;28;20031;-57
2022/03/08 06:01:26;;;;;;;;;;;2.30;52.00;;;;;;4997591;28;19910;-56
2022/03/08 06:03:51;;;;;;;;;;;2.20;51.90;;;;;;5015418;28;19916;-57
2022/03/08 06:06:17;;;;;;;;;;;2.10;52.80;;;;;;5015262;28;20376;-62
2022/03/08 06:08:42;;;;;;;;;;;2.00;54.40;;;;;;5015027;28;19909;-55
2022/03/08 06:11:08;;;;;;;;;;;2.00;54.80;;;;;;5014990;28;19925;-58
2022/03/08 06:13:33;;;;;;;;;;;2.10;53.50;;;;;;5015007;28;20377;-57
2022/03/08 06:15:59;;;;;;;;;;;2.10;53.90;;;;;;5014932;28;19913;-57
2022/03/08 06:18:24;;;;;;;;;;;2.10;53.80;;;;;;5014803;28;20007;-57
2022/03/08 06:20:50;;;;;;;;;;;2.10;53.80;;;;;;5015259;28;19916;-57
2022/03/08 06:23:16;;;;;;;;;;;2.00;54.60;;;;;;5015064;28;19956;-57
2022/03/08 06:25:41;;;;;;;;;;;2.10;54.10;;;;;;5014954;28;19910;-56
2022/03/08 06:28:07;;;;;;;;;;;2.20;53.40;;;;;;5014863;28;20323;-56
2022/03/08 06:30:33;;;;;;;;;;;2.20;53.50;;;;;;5014770;28;19913;-56
2022/03/08 06:32:58;;;;;;;;;;;2.10;53.70;;;;;;5014619;28;19909;-56
2022/03/08 06:35:24;;;;;;;;;;;2.20;53.60;;;;;;5014792;28;20320;-56
2022/03/08 06:37:50;;;;;;;;;;;2.20;53.90;;;;;;5014637;28;20325;-56
2022/03/08 06:40:15;;;;;;;;;;;2.40;53.20;;;;;;5014032;28;19925;-57
2022/03/08 06:42:41;;;;;;;;;;;2.40;53.10;;;;;;5014832;28;20047;-56
2022/03/08 06:45:07;;;;;;;;;;;2.50;53.20;;;;;;5014452;28;19909;-56
2022/03/08 06:47:32;;;;;;;;;;;2.70;52.30;;;;;;5014777;28;19909;-56
2022/03/08 06:49:58;;;;;;;;;;;2.70;52.30;;;;;;5014731;28;19909;-57
2022/03/08 06:52:24;;;;;;;;;;;2.60;53.20;;;;;;5014441;28;19979;-56
2022/03/08 06:54:49;;;;;;;;;;;2.50;53.30;;;;;;5014357;28;19920;-56
2022/03/08 06:57:15;;;;;;;;;;;2.60;53.60;;;;;;5014411;28;19913;-56
2022/03/08 06:59:41;;;;;;;;;;;3.20;57.90;;;;;;5014597;28;20034;-57
2022/03/08 07:02:06;;;;;;;;;;;3.80;55.10;;;;;;5014340;28;19916;-55
2022/03/08 07:04:32;;;;;;;;;;;4.30;52.60;;;;;;5013892;28;19910;-56
2022/03/08 07:06:57;;;;;;;;;;;4.90;49.70;;;;;;5014284;28;19960;-54
2022/03/08 07:09:23;;;;;;;;;;;5.20;47.70;;;;;;5013737;28;19916;-56
2022/03/08 07:11:48;;;;;;;;;;;5.70;48.30;;;;;;5014244;28;20083;-56
2022/03/08 07:14:15;;;;;;;;;;;6.00;46.20;;;;;;5014147;28;19909;-57
2022/03/08 07:16:42;;;;;;;;;;;6.30;43.50;;;;;;5014099;28;20341;-57
2022/03/08 07:19:07;;;;;;;;;;;6.60;43.30;;;;;;5013873;28;19999;-57
2022/03/08 07:21:33;;;;;;;;;;;6.80;43.10;;;;;;5013833;28;20378;-56
2022/03/08 07:23:58;;;;;;;;;;;6.90;42.70;;;;;;5013973;28;19910;-58
2022/03/08 07:26:24;;;;;;;;;;;7.00;42.30;;;;;;5013848;28;19916;-56
2022/03/08 07:28:49;;;;;;;;;;;7.20;41.60;;;;;;5013925;28;20365;-57
2022/03/08 07:31:15;;;;;;;;;;;7.30;41.30;;;;;;5013736;28;19949;-56
2022/03/08 07:33:41;;;;;;;;;;;7.30;41.00;;;;;;5013837;28;19910;-57
2022/03/08 07:36:06;;;;;;;;;;;7.40;40.20;;;;;;5013830;28;19914;-59
2022/03/08 07:38:32;;;;;;;;;;;7.60;40.90;;;;;;5017111;28;19910;-56
2022/03/08 07:40:58;;;;;;;;;;;7.60;40.90;;;;;;5015094;28;20360;-58
2022/03/08 07:43:23;;;;;;;;;;;7.70;38.70;;;;;;5013922;28;20303;-56
2022/03/08 07:45:49;;;;;;;;;;;7.80;37.60;;;;;;5013691;28;19916;-60
2022/03/08 07:48:14;;;;;;;;;;;7.70;37.00;;;;;;5013604;28;19909;-62
2022/03/08 07:50:40;;;;;;;;;;;7.80;37.30;;;;;;5014275;28;19920;-59
2022/03/08 07:53:06;;;;;;;;;;;7.50;37.10;;;;;;5017630;28;19910;-60
2022/03/08 07:55:31;;;;;;;;;;;7.10;37.60;;;;;;5017670;28;19917;-55
2022/03/08 07:57:57;;;;;;;;;;;6.90;38.10;;;;;;5017271;28;20450;-56
2022/03/08 08:00:24;;;;;;;;;;;7.00;38.60;;;;;;5017458;28;20384;-55
2022/03/08 08:02:49;;;;;;;;;;;6.80;38.80;;;;;;5017064;28;20082;-55
2022/03/08 08:05:16;;;;;;;;;;;7.00;39.20;;;;;;5017608;28;19910;-56
2022/03/08 08:07:42;;;;;;;;;;;7.40;37.30;;;;;;5017373;28;19909;-59
2022/03/08 08:10:07;;;;;;;;;;;7.70;36.20;;;;;;5017524;28;20278;-56
2022/03/08 08:12:34;;;;;;;;;;;7.60;35.50;;;;;;5017444;28;19919;-55
2022/03/08 08:15:00;;;;;;;;;;;7.60;35.30;;;;;;5017088;28;19917;-56
2022/03/08 08:17:25;;;;;;;;;;;7.50;34.90;;;;;;5017436;28;20294;-56
2022/03/08 08:19:51;;;;;;;;;;;7.70;34.40;;;;;;5016768;28;19926;-57
2022/03/08 08:22:17;;;;;;;;;;;7.60;34.70;;;;;;5017151;28;19965;-58
2022/03/08 08:24:42;;;;;;;;;;;7.80;35.20;;;;;;5016831;28;19910;-57
2022/03/08 08:27:08;;;;;;;;;;;8.10;34.40;;;;;;5016995;28;20353;-55
2022/03/08 08:29:33;;;;;;;;;;;8.20;34.30;;;;;;5013918;28;20273;-55
2022/03/08 08:31:59;;;;;;;;;;;8.40;34.20;;;;;;5008722;28;19921;-53
2022/03/08 08:34:24;;;;;;;;;;;8.70;33.50;;;;;;5010560;28;19913;-55
2022/03/08 08:36:50;;;;;;;;;;;8.90;32.60;;;;;;5010252;28;20012;-54
2022/03/08 08:39:15;;;;;;;;;;;8.70;31.70;;;;;;5011507;28;20036;-55
2022/03/08 08:41:44;;;;;;;;;;;8.40;32.20;;;;;;5016861;28;19909;-54
2022/03/08 08:44:11;;;;;;;;;;;8.60;31.60;;;;;;5009127;28;19914;-55
2022/03/08 08:46:36;;;;;;;;;;;8.70;30.60;;;;;;4997152;28;19913;-54
2022/03/08 08:49:02;;;;;;;;;;;8.60;30.70;;;;;;4990031;28;19956;-53
2022/03/08 08:51:28;;;;;;;;;;;8.60;32.50;;;;;;5016678;28;19910;-54
2022/03/08 08:53:54;;;;;;;;;;;8.70;32.00;;;;;;5016409;28;19916;-54
2022/03/08 08:56:19;;;;;;;;;;;8.90;31.10;;;;;;5016388;28;19914;-54
2022/03/08 08:58:45;;;;;;;;;;;9.10;31.10;;;;;;5016245;28;19976;-54
2022/03/08 09:01:10;;;;;;;;;;;9.20;30.00;;;;;;4998502;28;19998;-57
2022/03/08 09:03:36;;;;;;;;;;;9.40;30.20;;;;;;5027765;28;20281;-56
2022/03/08 09:06:02;;;;;;;;;;;9.30;30.30;;;;;;5022439;28;19959;-59
2022/03/08 09:08:27;;;;;;;;;;;9.30;30.00;;;;;;5035847;28;19959;-55
2022/03/08 09:10:53;;;;;;;;;;;8.90;28.70;;;;;;5035866;28;19909;-54
2022/03/08 09:13:20;;;;;;;;;;;8.50;29.30;;;;;;5036066;28;19910;-54
2022/03/08 09:15:45;;;;;;;;;;;8.30;29.40;;;;;;5011181;28;20362;-56
2022/03/08 09:18:11;;;;;;;;;;;8.30;29.90;;;;;;4978726;28;19910;-55
2022/03/08 09:20:38;;;;;;;;;;;8.50;29.70;;;;;;4997047;28;20301;-54
2022/03/08 09:23:04;;;;;;;;;;;8.70;29.50;;;;;;4996334;28;20023;-57
2022/03/08 09:25:31;;;;;;;;;;;8.60;29.30;;;;;;5001144;28;20297;-59
2022/03/08 09:27:58;;;;;;;;;;;8.80;29.10;;;;;;5015239;28;19916;-54
2022/03/08 09:30:24;;;;;;;;;;;8.90;29.20;;;;;;5015129;28;19963;-56
2022/03/08 09:32:50;;;;;;;;;;;9.20;28.60;;;;;;5014923;28;19921;-56
2022/03/08 09:35:16;;;;;;;;;;;9.40;29.10;;;;;;5015068;28;20361;-61
2022/03/08 09:37:42;;;;;;;;;;;9.00;27.60;;;;;;5015277;28;19909;-55
2022/03/08 09:40:08;;;;;;;;;;;8.80;28.00;;;;;;5015653;28;20031;-55
2022/03/08 09:42:34;;;;;;;;;;;8.50;28.00;;;;;;5015528;28;19910;-58
2022/03/08 09:44:59;;;;;;;;;;;8.60;28.60;;;;;;5015487;28;19920;-71
2022/03/08 09:47:25;;;;;;;;;;;8.70;28.90;;;;;;4998149;28;20368;-75
2022/03/08 09:49:50;;;;;;;;;;;9.00;28.50;;;;;;5005793;28;19914;-64
2022/03/08 09:52:18;;;;;;;;;;;9.30;28.80;;;;;;5003472;28;20394;-57
2022/03/08 09:54:45;;;;;;;;;;;9.40;27.80;;;;;;5003076;28;19983;-61
2022/03/08 09:57:11;;;;;;;;;;;9.50;28.00;;;;;;5015055;28;19913;-54
2022/03/08 09:59:37;;;;;;;;;;;9.30;28.30;;;;;;5014920;28;20024;-55
2022/03/08 10:02:03;;;;;;;;;;;9.40;29.10;;;;;;5015029;28;19999;-54
2022/03/08 10:04:28;;;;;;;;;;;9.50;28.60;;;;;;5015030;28;19940;-54
2022/03/08 10:06:54;;;;;;;;;;;9.40;27.60;;;;;;5014853;28;19910;-58
2022/03/08 10:09:21;;;;;;;;;;;9.50;27.30;;;;;;5005667;28;19924;-53
2022/03/08 10:11:50;;;;;;;;;;;9.40;27.70;;;;;;4995801;28;20366;-63
2022/03/08 10:14:26;;;;;;;;;;;9.30;27.70;;;;;;5013503;28;19917;-68
2022/03/08 10:16:53;;;;;;;;;;;9.40;27.90;;;;;;5017832;28;19910;-54
2022/03/08 10:19:18;;;;;;;;;;;9.50;27.80;;;;;;5021187;28;19967;-56
2022/03/08 10:21:48;;;;;;;;;;;9.50;28.10;;;;;;5016554;28;20288;-55
2022/03/08 10:24:24;;;;;;;;;;;9.50;27.40;;;;;;5013290;28;20369;-55
2022/03/08 10:26:50;;;;;;;;;;;9.50;27.00;;;;;;5013913;28;20317;-54
2022/03/08 10:29:36;;;;;;;;;;;9.40;26.80;;;;;;5013012;28;19920;-55
2022/03/08 10:32:21;;;;;;;;;;;9.50;27.00;;;;;;5014659;28;19914;-55
2022/03/08 10:34:47;;;;;;;;;;;9.50;27.20;;;;;;5013873;28;19924;-60
2022/03/08 10:37:24;;;;;;;;;;;9.50;26.80;;;;;;5110939;27;19916;-57
2022/03/08 10:39:54;;;;;;;;;;;9.50;27.20;;;;;;5110478;28;19912;-58
2022/03/08 10:42:21;;;;;;;;;;;9.40;27.00;;;;;;5110809;28;19916;-59
2022/03/08 10:44:46;;;;;;;;;;;9.60;27.70;;;;;;5110298;28;19908;-56
2022/03/08 10:47:13;;;;;;;;;;;9.40;27.00;;;;;;5087697;28;19919;-56
2022/03/08 10:49:55;;;;;;;;;;;9.60;28.20;;;;;;5090939;28;19912;-55
2022/03/08 10:52:27;;;;;;;;;;;9.80;27.20;;;;;;5089331;28;19908;-59
2022/03/08 10:54:52;;;;;;;;;;;10.00;26.50;;;;;;5089208;28;19909;-56
2022/03/08 10:57:18;;;;;;;;;;;10.10;25.50;;;;;;5089013;28;19913;-58
2022/03/08 10:59:52;;;;;;;;;;;10.20;26.30;;;;;;5089157;28;19931;-57
2022/03/08 11:02:20;;;;;;;;;;;10.30;26.70;;;;;;5089110;28;19931;-58
2022/03/08 11:04:45;;;;;;;;;;;10.40;26.50;;;;;;5089073;28;19916;-58
2022/03/08 11:07:12;;;;;;;;;;;10.30;26.00;;;;;;5089169;28;19912;-56
2022/03/08 11:09:37;;;;;;;;;;;10.50;26.30;;;;;;5090726;28;20001;-60
2022/03/08 11:12:03;;;;;;;;;;;10.70;26.90;;;;;;5090643;28;19908;-57
2022/03/08 11:14:29;;;;;;;;;;;10.50;25.70;;;;;;5090462;28;19985;-56
2022/03/08 11:16:55;;;;;;;;;;;10.30;25.60;;;;;;5090106;28;20379;-56
2022/03/08 11:19:26;;;;;;;;;;;10.30;25.60;;;;;;5090559;28;19912;-56
2022/03/08 11:21:51;;;;;;;;;;;10.20;26.50;;;;;;5090435;28;20007;-54
2022/03/08 11:24:18;;;;;;;;;;;10.40;26.00;;;;;;5090594;28;20350;-55
2022/03/08 11:26:44;;;;;;;;;;;10.50;25.90;;;;;;5090170;28;19915;-54
2022/03/08 11:29:10;;;;;;;;;;;10.40;26.80;;;;;;5073800;28;19913;-53
2022/03/08 11:31:37;;;;;;;;;;;10.50;25.80;;;;;;5069550;28;19915;-65
2022/03/08 11:34:10;;;;;;;;;;;10.70;26.10;;;;;;5069325;28;19931;-59
2022/03/08 11:36:35;;;;;;;;;;;10.90;25.50;;;;;;5069229;28;20276;-71
2022/03/08 11:39:20;;;;;;;;;;;10.80;25.10;;;;;;5069344;28;19909;-56
2022/03/08 11:41:47;;;;;;;;;;;10.80;25.70;;;;;;5069353;28;19909;-57
2022/03/08 11:44:24;;;;;;;;;;;10.70;25.70;;;;;;5069256;28;19912;-55
2022/03/08 11:47:22;;;;;;;;;;;10.90;26.10;;;;;;5066317;28;19959;-70
2022/03/08 11:49:54;;;;;;;;;;;11.10;25.80;;;;;;5054952;28;19916;-54
2022/03/08 11:52:20;;;;;;;;;;;10.60;25.30;;;;;;5055914;28;19908;-57
2022/03/08 11:54:56;;;;;;;;;;;10.50;25.40;;;;;;5055793;28;19909;-54
2022/03/08 11:57:40;;;;;;;;;;;10.40;26.40;;;;;;5055821;28;20372;-62
2022/03/08 12:00:26;;;;;;;;;;;10.20;26.00;;;;;;5055960;28;19909;-54
2022/03/08 12:02:56;;;;;;;;;;;9.80;27.10;;;;;;5055628;28;19916;-55
2022/03/08 12:05:39;;;;;;;;;;;10.00;27.50;;;;;;5055572;28;19908;-53
2022/03/08 12:08:23;;;;;;;;;;;9.90;26.90;;;;;;5055642;28;19913;-56
2022/03/08 12:10:49;;;;;;;;;;;10.00;27.20;;;;;;5055474;28;19982;-61
2022/03/08 12:13:15;;;;;;;;;;;10.50;27.30;;;;;;5055555;28;19909;-81
2022/03/08 12:15:59;;;;;;;;;;;10.80;26.60;;;;;;5055428;28;19920;-69
2022/03/08 12:18:32;;;;;;;;;;;10.90;26.20;;;;;;5055498;28;19915;-65
2022/03/08 12:21:16;;;;;;;;;;;11.10;26.40;;;;;;5059451;28;19912;-57
2022/03/08 12:24:02;;;;;;;;;;;10.80;26.10;;;;;;5074790;28;20054;-66
2022/03/08 12:26:28;;;;;;;;;;;10.70;26.00;;;;;;5074333;28;19916;-68
2022/03/08 12:29:12;;;;;;;;;;;10.80;26.30;;;;;;5074600;28;19930;-56
2022/03/08 12:32:05;;;;;;;;;;;11.00;25.80;;;;;;5075577;28;19908;-73
2022/03/08 12:34:40;;;;;;;;;;;11.10;25.00;;;;;;5079155;28;19940;-72
2022/03/08 12:37:07;;;;;;;;;;;11.30;25.40;;;;;;5078788;28;19932;-77
2022/03/08 12:39:45;;;;;;;;;;;11.30;25.30;;;;;;5076226;28;20356;-76
2022/03/08 12:42:25;;;;;;;;;;;11.00;24.90;;;;;;5075300;28;19916;-70
2022/03/08 12:44:53;;;;;;;;;;;10.80;25.70;;;;;;5074407;28;19947;-72
2022/03/08 12:47:18;;;;;;;;;;;10.80;26.20;;;;;;5074189;28;19961;-56
2022/03/08 12:49:45;;;;;;;;;;;11.00;25.20;;;;;;5073316;28;19908;-55
2022/03/08 12:52:11;;;;;;;;;;;11.20;25.70;;;;;;5074314;28;19917;-58
2022/03/08 12:54:38;;;;;;;;;;;11.40;24.90;;;;;;5074722;28;19909;-55
2022/03/08 12:57:04;;;;;;;;;;;11.60;24.50;;;;;;5074140;28;19962;-57
2022/03/08 12:59:30;;;;;;;;;;;11.30;24.50;;;;;;5072891;28;20555;-57
2022/03/08 13:02:11;;;;;;;;;;;11.20;24.40;;;;;;5074029;28;20368;-56
2022/03/08 13:04:36;;;;;;;;;;;11.00;25.00;;;;;;5073975;28;20336;-55
2022/03/08 13:07:10;;;;;;;;;;;10.90;25.00;;;;;;5073814;28;19982;-54
2022/03/08 13:09:49;;;;;;;;;;;10.80;24.90;;;;;;5074471;28;19908;-56
2022/03/08 13:12:22;;;;;;;;;;;11.10;25.40;;;;;;5074193;28;19917;-59
2022/03/08 13:15:05;;;;;;;;;;;11.30;25.10;;;;;;5074453;28;20306;-56
2022/03/08 13:17:31;;;;;;;;;;;11.20;24.70;;;;;;5074280;28;19922;-54
2022/03/08 13:19:57;;;;;;;;;;;11.00;24.60;;;;;;5074089;28;20279;-55
2022/03/08 13:22:23;;;;;;;;;;;10.90;24.70;;;;;;5072621;28;19916;-55
2022/03/08 13:25:08;;;;;;;;;;;11.00;24.50;;;;;;5073029;28;20015;-55
2022/03/08 13:27:52;;;;;;;;;;;10.90;24.30;;;;;;5072247;28;19952;-56
2022/03/08 13:30:19;;;;;;;;;;;10.90;24.90;;;;;;5073186;28;20282;-55
2022/03/08 13:32:45;;;;;;;;;;;11.00;24.60;;;;;;5072752;28;19908;-55
2022/03/08 13:35:10;;;;;;;;;;;11.00;25.00;;;;;;5072243;28;20409;-60
2022/03/08 13:37:47;;;;;;;;;;;11.20;24.80;;;;;;5071650;28;19913;-55
2022/03/08 13:40:28;;;;;;;;;;;11.10;25.00;;;;;;5072655;28;19970;-55
2022/03/08 13:42:57;;;;;;;;;;;11.10;25.10;;;;;;5072630;28;19913;-56
2022/03/08 13:45:23;;;;;;;;;;;11.10;25.20;;;;;;5072501;28;19919;-55
2022/03/08 13:47:54;;;;;;;;;;;11.30;24.70;;;;;;5072416;28;19909;-55
2022/03/08 13:50:24;;;;;;;;;;;11.10;24.00;;;;;;5072441;28;19908;-54
2022/03/08 13:52:53;;;;;;;;;;;11.00;24.90;;;;;;5072430;28;19915;-57
2022/03/08 13:55:20;;;;;;;;;;;11.00;25.10;;;;;;5072314;28;20020;-58
2022/03/08 13:58:12;;;;;;;;;;;10.80;24.80;;;;;;5072453;28;19915;-54
2022/03/08 14:00:37;;;;;;;;;;;10.80;25.50;;;;;;5063716;28;20451;-55
2022/03/08 14:03:07;;;;;;;;;;;10.90;25.50;;;;;;5058795;28;20007;-56
2022/03/08 14:05:51;;;;;;;;;;;10.80;25.30;;;;;;5069918;28;19986;-54
2022/03/08 14:08:24;;;;;;;;;;;10.80;25.30;;;;;;5072134;28;19913;-54
2022/03/08 14:10:51;;;;;;;;;;;10.80;28.50;;;;;;5072134;28;19908;-55
2022/03/08 14:13:16;;;;;;;;;;;10.90;30.60;;;;;;5072074;28;20246;-55
2022/03/08 14:15:55;;;;;;;;;;;11.00;31.30;;;;;;5072138;28;20015;-55
2022/03/08 14:18:21;;;;;;;;;;;10.20;32.10;;;;;;5072381;28;19908;-56
2022/03/08 14:20:47;;;;;;;;;;;10.10;33.60;;;;;;5071360;28;20003;-55
2022/03/08 14:23:12;;;;;;;;;;;10.30;33.00;;;;;;5072594;28;19916;-55
2022/03/08 14:25:57;;;;;;;;;;;10.50;33.30;;;;;;5071923;28;19916;-55
2022/03/08 14:28:45;;;;;;;;;;;10.80;33.40;;;;;;5072022;28;19967;-53